Time;durP1;ratioP1;P1;durP2;ratioP2;P2;SDS_P1;SDS_P2;PMS_P1;PMS_P2;Temp;Humidity;BMP_temperature;BMP_pressure;BME280_temperature;BME280_humidity;BME280_pressure;Samples;Min_cycle;Max_cycle;Signal;HPM_P1;HPM_P2
2022/02/21 00:01:35;;;;;;;6.55;5.93;;;;;;;4.42;82.69;96093.09;6241011;22;20015;-64
2022/02/21 00:04:00;;;;;;;6.68;5.60;;;;;;;4.44;82.78;96105.09;6268664;22;20004;-63
2022/02/21 00:06:26;;;;;;;7.13;5.50;;;;;;;4.44;83.15;96096.44;6268275;22;20007;-64
2022/02/21 00:08:51;;;;;;;7.35;5.18;;;;;;;4.34;82.55;96085.72;6269060;22;20000;-63
2022/02/21 00:11:16;;;;;;;6.07;4.40;;;;;;;4.34;82.43;96079.69;6269372;22;20079;-63
2022/02/21 00:13:42;;;;;;;7.40;4.80;;;;;;;4.45;81.83;96072.03;6270030;22;20050;-64
2022/02/21 00:16:07;;;;;;;9.95;7.93;;;;;;;4.36;82.49;96059.59;6269740;22;20003;-63
2022/02/21 00:18:33;;;;;;;11.05;7.28;;;;;;;4.32;82.82;96053.72;6269574;22;19999;-63
2022/02/21 00:20:58;;;;;;;7.65;5.95;;;;;;;4.25;82.59;96029.78;6269802;22;20057;-63
2022/02/21 00:23:23;;;;;;;7.90;5.47;;;;;;;4.26;82.03;96018.41;6269339;22;20016;-63
2022/02/21 00:25:49;;;;;;;7.70;5.38;;;;;;;4.22;82.12;96014.34;6269398;22;20012;-63
2022/02/21 00:28:14;;;;;;;9.30;6.45;;;;;;;4.16;82.83;96010.34;6269525;22;19999;-64
2022/02/21 00:30:39;;;;;;;7.13;5.72;;;;;;;4.33;81.75;96015.47;6269518;22;20419;-63
2022/02/21 00:33:05;;;;;;;10.10;6.65;;;;;;;4.34;81.44;96019.75;6269711;22;20003;-63
2022/02/21 00:35:30;;;;;;;11.65;8.43;;;;;;;4.41;80.85;96024.44;6269689;22;20000;-64
2022/02/21 00:37:55;;;;;;;14.50;8.68;;;;;;;4.33;81.32;96020.66;6269456;22;20004;-63
2022/02/21 00:40:21;;;;;;;9.00;6.55;;;;;;;4.70;79.79;96020.94;6269594;22;20008;-63
2022/02/21 00:42:46;;;;;;;9.20;6.65;;;;;;;4.53;80.55;96020.25;6268876;22;20087;-63
2022/02/21 00:45:12;;;;;;;17.05;9.60;;;;;;;4.36;82.04;96026.50;6269450;22;20004;-63
2022/02/21 00:47:39;;;;;;;10.07;7.57;;;;;;;4.27;82.26;96035.72;6269557;22;20075;-63
2022/02/21 00:50:05;;;;;;;8.85;6.00;;;;;;;4.22;82.61;96050.81;6269379;22;20008;-63
2022/02/21 00:52:31;;;;;;;6.63;5.45;;;;;;;4.20;82.73;96065.72;6269779;22;20084;-63
2022/02/21 00:54:56;;;;;;;9.20;6.05;;;;;;;4.21;82.96;96070.00;6269388;22;20404;-63
2022/02/21 00:57:22;;;;;;;9.13;6.97;;;;;;;4.21;82.74;96070.00;6269295;22;20004;-64
2022/02/21 00:59:48;;;;;;;10.63;8.13;;;;;;;4.19;82.92;96066.66;6269460;22;19999;-63
2022/02/21 01:02:14;;;;;;;11.63;7.35;;;;;;;4.23;83.17;96068.13;6269286;22;19996;-64
2022/02/21 01:04:39;;;;;;;10.38;7.20;;;;;;;4.26;82.57;96044.50;6269556;22;20008;-63
2022/02/21 01:07:05;;;;;;;9.30;6.60;;;;;;;4.36;82.24;96038.72;6269270;22;20006;-63
2022/02/21 01:09:31;;;;;;;8.60;6.18;;;;;;;4.33;83.25;96037.13;6269179;22;20466;-63
2022/02/21 01:11:56;;;;;;;6.05;5.45;;;;;;;4.31;83.51;96039.00;6269185;22;20011;-63
2022/02/21 01:14:22;;;;;;;7.30;5.38;;;;;;;4.23;83.92;96036.88;6269427;22;20087;-63
2022/02/21 01:16:47;;;;;;;6.53;5.55;;;;;;;4.21;84.03;96041.34;6269242;22;20008;-63
2022/02/21 01:19:13;;;;;;;6.28;5.30;;;;;;;4.26;83.81;96044.50;6242024;22;20035;-63
2022/02/21 01:21:38;;;;;;;8.32;5.75;;;;;;;4.23;84.29;96049.91;6269089;22;20515;-64
2022/02/21 01:24:04;;;;;;;5.90;5.13;;;;;;;4.21;84.44;96036.13;6269158;22;20006;-64
2022/02/21 01:26:29;;;;;;;6.63;4.85;;;;;;;4.25;83.62;96035.00;6268938;22;20024;-63
2022/02/21 01:28:55;;;;;;;6.18;5.22;;;;;;;4.28;83.67;96053.03;6269096;22;20081;-63
2022/02/21 01:31:20;;;;;;;6.70;5.80;;;;;;;4.25;85.12;96034.19;6269029;22;20435;-63
2022/02/21 01:33:46;;;;;;;10.65;6.60;;;;;;;4.24;84.44;96032.50;6269330;22;20004;-63
2022/02/21 01:36:11;;;;;;;11.73;7.13;;;;;;;4.25;84.70;96034.19;6268909;22;20006;-63
2022/02/21 01:38:37;;;;;;;10.65;6.97;;;;;;;4.27;84.26;96020.09;6269339;22;20008;-63
2022/02/21 01:41:02;;;;;;;9.43;6.75;;;;;;;4.33;83.94;96031.09;6269140;22;20000;-63
2022/02/21 01:43:28;;;;;;;8.88;6.70;;;;;;;4.29;84.71;96026.06;6268891;22;20573;-63
2022/02/21 01:45:54;;;;;;;12.75;6.93;;;;;;;4.28;85.21;96029.59;6269194;22;20000;-63
2022/02/21 01:48:19;;;;;;;8.40;6.93;;;;;;;4.29;84.71;96026.06;6269011;22;20010;-63
2022/02/21 01:50:45;;;;;;;8.20;5.90;;;;;;;4.38;83.69;96024.66;6268975;22;20039;-64
2022/02/21 01:53:11;;;;;;;7.45;6.00;;;;;;;4.43;83.51;96033.03;6268950;22;20339;-63
2022/02/21 01:55:37;;;;;;;8.32;6.05;;;;;;;4.37;85.20;96032.56;6269230;22;20475;-64
2022/02/21 01:58:05;;;;;;;9.80;6.82;;;;;;;4.38;84.61;96034.25;6269153;22;20004;-64
2022/02/21 02:00:31;;;;;;;10.05;6.93;;;;;;;4.66;82.83;96022.94;6268561;22;20025;-63
2022/02/21 02:02:56;;;;;;;9.77;7.05;;;;;;;4.51;82.91;96023.88;6268484;22;20055;-63
2022/02/21 02:05:23;;;;;;;11.77;6.85;;;;;;;4.40;83.68;96028.00;6268959;22;20004;-63
2022/02/21 02:07:49;;;;;;;11.23;7.22;;;;;;;4.34;84.82;96017.94;6268481;22;20004;-64
2022/02/21 02:10:14;;;;;;;9.30;6.78;;;;;;;4.41;84.12;96014.03;6268675;22;20350;-63
2022/02/21 02:12:40;;;;;;;10.45;7.78;;;;;;;4.34;84.49;95996.28;6268820;22;20344;-63
2022/02/21 02:15:18;;;;;;;10.25;7.88;;;;;;;4.22;85.33;95977.03;6268718;22;20010;-63
2022/02/21 02:17:44;;;;;;;10.30;7.43;;;;;;;4.20;85.19;95974.50;6269472;22;20010;-64
2022/02/21 02:20:10;;;;;;;17.65;8.45;;;;;;;4.18;85.99;95949.47;6270019;22;20023;-64
2022/02/21 02:22:37;;;;;;;11.13;8.38;;;;;;;4.14;86.18;95943.63;6270127;22;20586;-63
2022/02/21 02:25:04;;;;;;;8.68;6.50;;;;;;;4.06;87.17;95935.44;6270568;22;19996;-64
2022/02/21 02:27:29;;;;;;;11.50;6.68;;;;;;;4.07;86.99;95927.53;6269920;22;20443;-64
2022/02/21 02:29:58;;;;;;;13.07;6.55;;;;;;;4.08;86.61;95897.94;6269875;22;20029;-63
2022/02/21 02:32:24;;;;;;;8.65;5.47;;;;;;;4.08;86.33;95897.09;6270477;22;20003;-63
2022/02/21 02:34:52;;;;;;;9.80;5.75;;;;;;;4.10;87.03;95898.66;6269936;22;20007;-64
2022/02/21 02:37:20;;;;;;;7.22;5.72;;;;;;;4.11;86.92;95886.50;6270266;22;19999;-64
2022/02/21 02:39:45;;;;;;;6.28;4.72;;;;;;;4.12;86.91;95873.34;6270029;22;20004;-64
2022/02/21 02:42:11;;;;;;;6.68;4.93;;;;;;;4.11;87.59;95861.25;6270022;22;20188;-63
2022/02/21 02:44:36;;;;;;;6.22;4.38;;;;;;;4.10;87.67;95861.38;6270071;22;20010;-63
2022/02/21 02:47:06;;;;;;;4.50;4.10;;;;;;;4.24;86.12;95871.72;6270033;22;20444;-64
2022/02/21 02:49:32;;;;;;;6.28;4.60;;;;;;;4.55;83.97;95854.13;6269832;22;20007;-63
2022/02/21 02:51:57;;;;;;;6.78;5.07;;;;;;;4.97;81.74;95863.53;6270085;22;20053;-64
2022/02/21 02:54:22;;;;;;;5.45;4.63;;;;;;;4.86;81.20;95862.50;6270122;22;20000;-64
2022/02/21 02:56:48;;;;;;;5.90;3.90;;;;;;;5.00;80.34;95868.59;6270052;22;20003;-63
2022/02/21 02:59:13;;;;;;;5.38;4.28;;;;;;;4.94;80.46;95877.66;6269870;22;20008;-64
2022/02/21 03:01:39;;;;;;;5.50;4.75;;;;;;;4.72;82.45;95873.00;6269942;22;20440;-63
2022/02/21 03:04:06;;;;;;;9.38;6.10;;;;;;;4.55;84.32;95871.50;6269824;22;20003;-63
2022/02/21 03:06:32;;;;;;;10.13;5.55;;;;;;;4.57;84.41;95880.06;6269848;22;20034;-63
2022/02/21 03:08:58;;;;;;;7.35;5.00;;;;;;;4.41;86.95;95875.03;6270029;22;20000;-64
2022/02/21 03:11:23;;;;;;;5.22;4.65;;;;;;;4.37;86.76;95878.78;6270053;22;20004;-63
2022/02/21 03:13:48;;;;;;;12.48;4.35;;;;;;;4.36;87.97;95880.53;6269795;22;20067;-63
2022/02/21 03:16:14;;;;;;;4.78;4.28;;;;;;;4.34;88.69;95876.38;6269815;22;20042;-64
2022/02/21 03:18:39;;;;;;;4.78;3.90;;;;;;;4.27;90.57;95871.53;6270029;22;20031;-64
2022/02/21 03:21:04;;;;;;;4.47;3.72;;;;;;;4.28;90.28;95873.19;6269557;22;20002;-64
2022/02/21 03:23:30;;;;;;;9.43;4.50;;;;;;;4.29;91.60;95871.44;6269751;22;20011;-63
2022/02/21 03:25:55;;;;;;;4.45;3.67;;;;;;;4.30;92.45;95870.50;6269763;22;20023;-64
2022/02/21 03:28:21;;;;;;;4.78;3.67;;;;;;;4.30;92.33;95866.09;6269556;22;20010;-64
2022/02/21 03:30:47;;;;;;;5.13;3.90;;;;;;;4.43;91.19;95871.41;6242458;22;20064;-63
2022/02/21 03:33:13;;;;;;;7.03;4.45;;;;;;;4.48;90.54;95867.66;6269774;22;20003;-63
2022/02/21 03:35:39;;;;;;;7.45;5.50;;;;;;;4.68;90.01;95861.09;6269942;22;20516;-64
2022/02/21 03:38:04;;;;;;;6.78;5.60;;;;;;;4.55;89.62;95858.47;6269999;22;20448;-64
2022/02/21 03:40:30;;;;;;;6.38;5.63;;;;;;;4.36;90.79;95859.66;6269737;22;20071;-64
2022/02/21 03:42:56;;;;;;;6.85;5.72;;;;;;;4.29;91.27;95855.81;6242995;22;20043;-64
2022/02/21 03:45:24;;;;;;;7.38;5.53;;;;;;;4.24;92.25;95850.06;6269833;22;20044;-64
2022/02/21 03:47:51;;;;;;;8.18;5.80;;;;;;;4.21;92.47;95855.47;6269765;22;20004;-63
2022/02/21 03:50:16;;;;;;;6.28;5.35;;;;;;;4.17;92.61;95852.22;6269695;22;20351;-63
2022/02/21 03:52:42;;;;;;;7.05;5.30;;;;;;;4.15;93.70;95861.91;6270040;22;20083;-63
2022/02/21 03:55:08;;;;;;;7.38;5.68;;;;;;;4.13;93.10;95859.38;6269662;22;19996;-64
2022/02/21 03:57:33;;;;;;;9.23;6.95;;;;;;;4.08;95.39;95865.81;6242368;22;20435;-63
2022/02/21 03:59:59;;;;;;;7.53;6.30;;;;;;;4.10;94.30;95856.16;6269515;22;19999;-64
2022/02/21 04:02:24;;;;;;;9.57;6.15;;;;;;;4.04;96.29;95849.56;6269822;22;20031;-64
2022/02/21 04:04:50;;;;;;;7.00;5.82;;;;;;;4.07;96.44;95853.72;6269659;22;20075;-64
2022/02/21 04:07:15;;;;;;;9.00;6.57;;;;;;;4.00;97.24;95848.91;6269625;22;20021;-65
2022/02/21 04:09:40;;;;;;;11.20;6.70;;;;;;;3.93;100.00;95842.44;6269591;22;20011;-65
2022/02/21 04:12:07;;;;;;;10.45;6.88;;;;;;;3.91;99.91;95830.41;6269547;22;20027;-65
2022/02/21 04:14:33;;;;;;;9.32;7.68;;;;;;;3.91;100.00;95836.47;6269986;22;20000;-65
2022/02/21 04:16:58;;;;;;;7.97;7.05;;;;;;;3.92;99.67;95829.50;6269519;22;20007;-65
2022/02/21 04:19:25;;;;;;;11.15;7.63;;;;;;;3.97;100.00;95827.41;6269810;22;20007;-65
2022/02/21 04:21:50;;;;;;;10.20;7.03;;;;;;;3.95;100.00;95826.69;6269129;22;20017;-65
2022/02/21 04:24:16;;;;;;;7.70;6.78;;;;;;;3.93;100.00;95829.41;6269311;22;20000;-65
2022/02/21 04:26:41;;;;;;;7.97;6.75;;;;;;;3.93;100.00;95826.78;6269240;22;20083;-65
2022/02/21 04:29:07;;;;;;;11.52;6.97;;;;;;;3.92;100.00;95824.28;6269489;22;20008;-65
2022/02/21 04:31:32;;;;;;;8.43;6.85;;;;;;;3.96;100.00;95820.53;6269659;22;20508;-65
2022/02/21 04:33:58;;;;;;;10.13;7.55;;;;;;;3.93;100.00;95821.59;6269208;22;20427;-65
2022/02/21 04:36:23;;;;;;;8.35;6.97;;;;;;;3.91;100.00;95825.22;6269350;22;20007;-65
2022/02/21 04:38:48;;;;;;;9.13;7.07;;;;;;;3.91;100.00;95806.97;6242277;22;20018;-65
2022/02/21 04:41:14;;;;;;;6.95;6.05;;;;;;;4.03;100.00;95810.56;6268853;22;20007;-65
2022/02/21 04:43:39;;;;;;;11.27;7.78;;;;;;;4.11;100.00;95816.13;6242437;22;20003;-65
2022/02/21 04:46:07;;;;;;;7.95;5.63;;;;;;;4.07;100.00;95788.59;6269350;22;20027;-65
2022/02/21 04:48:33;;;;;;;8.30;5.88;;;;;;;4.10;100.00;95786.63;6269335;22;20064;-65
2022/02/21 04:50:58;;;;;;;7.45;6.00;;;;;;;4.12;100.00;95789.16;6269285;22;20003;-65
2022/02/21 04:53:23;;;;;;;6.43;5.72;;;;;;;4.24;100.00;95795.31;6269489;22;20011;-65
2022/02/21 04:55:50;;;;;;;8.45;5.38;;;;;;;4.30;100.00;95800.94;6269127;22;20003;-65
2022/02/21 04:58:15;;;;;;;5.25;4.22;;;;;;;4.38;100.00;95807.44;6269273;22;20347;-65
2022/02/21 05:00:41;;;;;;;4.45;4.05;;;;;;;4.29;100.00;95801.88;6242470;22;20008;-66
2022/02/21 05:03:06;;;;;;;6.88;6.18;;;;;;;4.34;100.00;95770.31;6268917;22;20008;-65
2022/02/21 05:05:31;;;;;;;8.32;5.97;;;;;;;4.26;100.00;95739.53;6269453;22;20004;-65
2022/02/21 05:07:58;;;;;;;8.60;5.72;;;;;;;4.23;100.00;95729.31;6268653;22;20053;-65
2022/02/21 05:10:26;;;;;;;6.50;5.25;;;;;;;4.25;100.00;95714.41;6269247;22;20035;-65
2022/02/21 05:12:52;;;;;;;4.70;4.20;;;;;;;4.34;100.00;95714.75;6269188;22;20004;-65
2022/02/21 05:15:17;;;;;;;3.63;3.33;;;;;;;4.28;100.00;95710.78;6268958;22;20384;-65
2022/02/21 05:17:43;;;;;;;3.35;3.05;;;;;;;4.33;100.00;95713.91;6269286;22;20028;-64
2022/02/21 05:20:10;;;;;;;4.35;3.95;;;;;;;4.89;100.00;95731.03;6268965;22;20324;-65
2022/02/21 05:22:35;;;;;;;4.78;4.07;;;;;;;5.02;100.00;95726.59;6269166;22;20476;-65
2022/02/21 05:25:02;;;;;;;7.28;3.65;;;;;;;4.78;100.00;95718.72;6267902;22;20078;-65
2022/02/21 05:27:27;;;;;;;4.55;3.00;;;;;;;4.84;100.00;95701.78;6269126;22;20016;-65
2022/02/21 05:29:53;;;;;;;6.43;3.45;;;;;;;4.66;100.00;95704.75;6269013;22;20073;-65
2022/02/21 05:32:18;;;;;;;5.57;3.88;;;;;;;4.55;100.00;95696.81;6269091;22;20008;-65
2022/02/21 05:34:43;;;;;;;8.75;5.55;;;;;;;4.43;100.00;95706.31;6269520;22;20008;-65
2022/02/21 05:37:09;;;;;;;8.90;4.57;;;;;;;4.46;100.00;95703.47;6269000;22;20071;-66
2022/02/21 05:39:35;;;;;;;6.80;5.60;;;;;;;4.40;100.00;95706.50;6269229;22;20006;-64
2022/02/21 05:42:00;;;;;;;5.88;3.88;;;;;;;4.40;100.00;95712.53;6242048;22;20459;-66
2022/02/21 05:44:26;;;;;;;5.38;4.88;;;;;;;4.38;100.00;95706.59;6269020;22;20004;-66
2022/02/21 05:46:51;;;;;;;6.78;3.45;;;;;;;4.39;100.00;95687.41;6269172;22;20116;-66
2022/02/21 05:49:16;;;;;;;4.53;3.72;;;;;;;4.41;100.00;95672.50;6268830;22;20000;-66
2022/02/21 05:51:42;;;;;;;3.15;2.50;;;;;;;4.43;100.00;95683.69;6269611;22;20075;-65
2022/02/21 05:54:08;;;;;;;2.70;2.50;;;;;;;4.48;100.00;95690.34;6270251;22;20347;-65
2022/02/21 05:56:33;;;;;;;3.38;2.38;;;;;;;4.50;100.00;95689.28;6270344;22;20132;-65
2022/02/21 05:58:59;;;;;;;4.50;2.55;;;;;;;4.48;100.00;95670.31;6270153;22;20445;-65
2022/02/21 06:01:24;;;;;;;3.45;3.10;;;;;;;4.85;100.00;95667.78;6270457;22;20004;-65
2022/02/21 06:03:50;;;;;;;5.05;3.92;;;;;;;4.64;100.00;95657.09;6270083;22;20436;-64
2022/02/21 06:06:15;;;;;;;5.00;3.70;;;;;;;4.57;100.00;95654.06;6270083;22;20022;-64
2022/02/21 06:08:41;;;;;;;4.47;3.28;;;;;;;4.57;100.00;95650.59;6270447;22;20335;-64
2022/02/21 06:11:06;;;;;;;8.13;3.30;;;;;;;4.51;100.00;95645.81;6269700;22;20060;-64
2022/02/21 06:13:32;;;;;;;8.93;3.03;;;;;;;4.47;100.00;95626.94;6270859;22;20071;-65
2022/02/21 06:15:58;;;;;;;4.70;3.33;;;;;;;4.48;100.00;95609.53;6269497;22;20437;-64
2022/02/21 06:18:23;;;;;;;2.90;2.70;;;;;;;4.47;100.00;95605.25;6243538;22;20087;-64
2022/02/21 06:20:49;;;;;;;3.30;2.75;;;;;;;4.43;100.00;95599.41;6270029;22;20010;-65
2022/02/21 06:23:14;;;;;;;3.33;2.88;;;;;;;4.41;100.00;95596.09;6270156;22;20007;-65
2022/02/21 06:25:42;;;;;;;6.38;2.72;;;;;;;4.38;100.00;95591.91;6270168;22;20003;-65
2022/02/21 06:28:08;;;;;;;3.00;2.70;;;;;;;4.38;100.00;95583.25;6270098;22;20004;-64
2022/02/21 06:30:33;;;;;;;4.28;3.88;;;;;;;4.40;100.00;95595.25;6242198;22;20389;-64
2022/02/21 06:32:59;;;;;;;5.63;5.13;;;;;;;4.80;100.00;95598.59;6270246;22;20003;-64
2022/02/21 06:35:24;;;;;;;7.45;5.85;;;;;;;4.98;100.00;95588.66;6270303;22;20492;-64
2022/02/21 06:37:52;;;;;;;6.38;4.45;;;;;;;5.12;100.00;95606.75;6269991;22;20055;-64
2022/02/21 06:40:17;;;;;;;5.63;5.15;;;;;;;4.92;100.00;95609.94;6269969;22;20008;-64
2022/02/21 06:42:43;;;;;;;5.93;4.60;;;;;;;4.83;100.00;95606.22;6270114;22;20505;-64
2022/02/21 06:45:09;;;;;;;8.18;5.05;;;;;;;4.63;100.00;95599.81;6269980;22;20015;-64
2022/02/21 06:47:34;;;;;;;9.65;6.45;;;;;;;4.57;100.00;95611.50;6270139;22;20438;-64
2022/02/21 06:50:01;;;;;;;9.90;5.93;;;;;;;4.62;100.00;95598.94;6269931;22;20011;-65
2022/02/21 06:52:27;;;;;;;9.25;6.75;;;;;;;4.58;100.00;95598.34;6268857;22;20435;-65
2022/02/21 06:54:52;;;;;;;7.57;6.88;;;;;;;4.80;100.00;95602.06;6240803;22;20021;-65
2022/02/21 06:57:22;;;;;;;8.50;5.75;;;;;;;5.11;100.00;95615.53;6267745;22;20007;-64
2022/02/21 06:59:48;;;;;;;12.25;6.82;;;;;;;4.78;100.00;95618.75;6269470;22;20008;-64
2022/02/21 07:02:13;;;;;;;9.45;7.53;;;;;;;4.45;100.00;95634.03;6269685;22;20000;-65
2022/02/21 07:04:38;;;;;;;10.25;7.70;;;;;;;4.40;100.00;95643.94;6269356;22;20129;-63
2022/02/21 07:07:04;;;;;;;10.93;9.52;;;;;;;4.21;100.00;95655.63;6269674;22;20052;-64
2022/02/21 07:09:29;;;;;;;12.50;10.30;;;;;;;4.15;100.00;95663.84;6268205;22;20014;-66
2022/02/21 07:11:55;;;;;;;13.38;11.13;;;;;;;4.09;100.00;95669.47;6267857;22;20428;-63
2022/02/21 07:14:22;;;;;;;11.98;10.73;;;;;;;4.05;100.00;95668.84;6267677;22;20079;-64
2022/02/21 07:16:48;;;;;;;12.60;10.90;;;;;;;4.05;100.00;95666.25;6241953;22;20004;-63
2022/02/21 07:19:13;;;;;;;10.75;9.75;;;;;;;3.98;100.00;95658.00;6269322;22;20068;-63
2022/02/21 07:21:39;;;;;;;11.80;9.27;;;;;;;4.02;100.00;95669.06;6269878;22;20405;-61
2022/02/21 07:24:04;;;;;;;10.38;8.80;;;;;;;3.98;100.00;95671.03;6269962;22;20006;-62
2022/02/21 07:26:30;;;;;;;9.77;8.25;;;;;;;4.06;100.00;95659.25;6269585;22;20467;-64
2022/02/21 07:28:55;;;;;;;9.52;8.63;;;;;;;4.05;100.00;95660.19;6268967;22;20003;-61
2022/02/21 07:31:21;;;;;;;10.45;8.55;;;;;;;4.10;100.00;95637.28;6267945;22;20004;-62
2022/02/21 07:33:46;;;;;;;8.40;7.63;;;;;;;4.11;100.00;95634.56;6267490;22;20027;-61
2022/02/21 07:36:11;;;;;;;8.43;7.75;;;;;;;4.12;100.00;95640.63;6269152;22;20060;-63
2022/02/21 07:38:37;;;;;;;9.57;7.93;;;;;;;4.09;100.00;95632.97;6269403;22;20007;-64
2022/02/21 07:41:02;;;;;;;10.23;7.82;;;;;;;4.08;100.00;95639.13;6269520;22;20015;-66
2022/02/21 07:43:28;;;;;;;8.20;7.45;;;;;;;4.15;100.00;95638.63;6269657;22;20031;-65
2022/02/21 07:45:53;;;;;;;11.88;9.85;;;;;;;4.11;100.00;95628.53;6269217;22;20000;-64
2022/02/21 07:48:19;;;;;;;10.70;9.68;;;;;;;4.11;100.00;95631.94;6269011;22;20381;-64
2022/02/21 07:50:44;;;;;;;13.50;12.02;;;;;;;4.16;100.00;95627.25;6269741;22;20038;-64
2022/02/21 07:53:10;;;;;;;11.55;10.13;;;;;;;4.10;100.00;95619.88;6269841;22;20443;-65
2022/02/21 07:55:36;;;;;;;9.50;8.80;;;;;;;4.20;100.00;95619.22;6270156;22;20335;-64
2022/02/21 07:58:02;;;;;;;11.40;10.35;;;;;;;4.16;100.00;95624.66;6269828;22;20004;-64
2022/02/21 08:00:28;;;;;;;15.52;13.85;;;;;;;4.09;100.00;95626.00;6269991;22;20034;-64
2022/02/21 08:02:54;;;;;;;14.32;12.80;;;;;;;4.09;100.00;95648.63;6268270;22;20007;-64
2022/02/21 08:05:19;;;;;;;16.67;15.05;;;;;;;4.05;100.00;95654.97;6267539;22;20006;-64
2022/02/21 08:07:45;;;;;;;22.65;20.23;;;;;;;4.05;100.00;95675.81;6269066;22;20007;-64
2022/02/21 08:10:10;;;;;;;18.50;16.63;;;;;;;4.57;100.00;95689.72;6267760;22;20039;-61
2022/02/21 08:12:36;;;;;;;42.47;25.42;;;;;;;4.63;100.00;95699.72;6269360;22;20003;-62
2022/02/21 08:15:02;;;;;;;6.30;5.80;;;;;;;4.39;100.00;95700.44;6268430;22;19999;-61
2022/02/21 08:17:27;;;;;;;14.88;13.32;;;;;;;4.42;100.00;95722.88;6268394;22;20074;-61
2022/02/21 08:19:54;;;;;;;5.03;4.63;;;;;;;4.91;100.00;95718.72;6268528;22;20035;-61
2022/02/21 08:22:19;;;;;;;3.50;3.20;;;;;;;4.99;100.00;95721.59;6268278;22;20078;-60
2022/02/21 08:24:44;;;;;;;6.07;5.05;;;;;;;4.85;100.00;95756.47;6268644;22;20058;-61
2022/02/21 08:27:10;;;;;;;4.68;4.28;;;;;;;4.71;100.00;95796.53;6268243;22;20034;-61
2022/02/21 08:29:36;;;;;;;1.70;1.60;;;;;;;5.08;93.00;95801.03;6241609;22;20011;-60
2022/02/21 08:32:02;;;;;;;1.45;1.35;;;;;;;5.26;88.79;95774.59;6268507;22;20010;-60
2022/02/21 08:34:29;;;;;;;1.00;1.00;;;;;;;5.24;85.91;95826.09;6268357;22;20328;-61
2022/02/21 08:36:54;;;;;;;1.25;1.25;;;;;;;4.94;87.88;95848.94;6268548;22;20006;-61
2022/02/21 08:39:19;;;;;;;3.75;1.67;;;;;;;4.69;93.10;95865.38;6268226;22;20435;-61
2022/02/21 08:41:45;;;;;;;3.33;1.55;;;;;;;4.20;97.05;95857.22;6268524;22;20537;-61
2022/02/21 08:44:10;;;;;;;1.75;1.40;;;;;;;4.13;97.86;95879.41;6268417;22;20068;-61
2022/02/21 08:46:36;;;;;;;2.05;1.95;;;;;;;4.04;98.58;95900.81;6267842;22;20087;-61
2022/02/21 08:49:04;;;;;;;1.98;1.80;;;;;;;4.10;98.36;95903.06;6268349;22;20007;-61
2022/02/21 08:51:30;;;;;;;4.10;3.13;;;;;;;4.00;99.60;95901.00;6268515;22;20027;-60
2022/02/21 08:53:55;;;;;;;2.20;1.85;;;;;;;4.03;98.54;95922.59;6268388;22;20435;-61
2022/02/21 08:56:20;;;;;;;2.78;2.17;;;;;;;3.73;98.70;95929.59;6268118;22;20004;-60
2022/02/21 08:58:46;;;;;;;3.60;1.58;;;;;;;3.64;97.88;95948.41;6268374;22;20022;-61
2022/02/21 09:01:11;;;;;;;3.80;1.70;;;;;;;3.65;97.86;95952.69;6268096;22;20508;-61
2022/02/21 09:03:37;;;;;;;1.80;1.70;;;;;;;3.67;99.93;95946.47;6268433;22;20008;-60
2022/02/21 09:06:03;;;;;;;3.42;2.05;;;;;;;3.57;100.00;95954.00;6268237;22;20000;-61
2022/02/21 09:08:31;;;;;;;2.67;2.13;;;;;;;3.61;100.00;95959.00;6268160;22;20396;-61
2022/02/21 09:10:57;;;;;;;2.30;2.10;;;;;;;3.62;100.00;95932.03;6268313;22;20008;-60
2022/02/21 09:13:23;;;;;;;3.45;3.10;;;;;;;3.92;100.00;95913.69;6268096;22;20011;-61
2022/02/21 09:15:48;;;;;;;5.32;3.58;;;;;;;4.23;98.63;95911.75;6268524;22;19999;-61
2022/02/21 09:18:13;;;;;;;6.78;5.93;;;;;;;4.22;98.04;95901.44;6268051;22;20000;-60
2022/02/21 09:20:39;;;;;;;7.03;5.55;;;;;;;3.99;100.00;95890.72;6268188;22;20003;-60
2022/02/21 09:23:05;;;;;;;8.90;5.50;;;;;;;4.08;100.00;95889.25;6268101;22;20096;-60
2022/02/21 09:25:31;;;;;;;6.20;4.20;;;;;;;4.33;100.00;95898.16;6267904;22;20436;-60
2022/02/21 09:27:56;;;;;;;4.43;3.05;;;;;;;4.47;100.00;95885.03;6267801;22;20008;-60
2022/02/21 09:30:22;;;;;;;5.03;3.53;;;;;;;4.76;100.00;95877.09;6267686;22;20061;-60
2022/02/21 09:32:49;;;;;;;6.85;4.70;;;;;;;4.95;97.15;95874.09;6268301;22;20495;-60
2022/02/21 09:35:15;;;;;;;2.72;2.53;;;;;;;5.03;98.49;95884.03;6267955;22;20003;-60
2022/02/21 09:37:40;;;;;;;7.60;2.78;;;;;;;5.18;97.31;95879.53;6267929;22;20449;-60
2022/02/21 09:40:09;;;;;;;5.75;3.20;;;;;;;5.12;96.84;95887.78;6267923;22;20032;-61
2022/02/21 09:42:36;;;;;;;6.43;2.70;;;;;;;5.00;95.97;95889.47;6268136;22;20006;-60
2022/02/21 09:45:03;;;;;;;5.05;3.05;;;;;;;4.68;96.79;95879.38;6267446;22;20030;-60
2022/02/21 09:47:30;;;;;;;4.65;2.45;;;;;;;4.46;96.45;95872.94;6240532;22;20014;-60
2022/02/21 09:49:56;;;;;;;6.53;3.13;;;;;;;4.50;96.58;95871.00;6267005;22;20004;-60
2022/02/21 09:52:21;;;;;;;5.65;3.35;;;;;;;4.41;98.79;95868.03;6267773;22;20074;-60
2022/02/21 09:54:47;;;;;;;4.32;2.70;;;;;;;4.39;99.26;95853.44;6267763;22;20080;-61
2022/02/21 09:57:15;;;;;;;8.10;3.00;;;;;;;4.47;98.21;95851.16;6267754;22;20390;-60
2022/02/21 09:59:41;;;;;;;9.32;3.58;;;;;;;4.42;100.00;95855.84;6267933;22;20084;-60
2022/02/21 10:02:19;;;;;;;4.55;3.70;;;;;;;4.37;100.00;95852.69;6267385;22;20376;-61
2022/02/21 10:04:45;;;;;;;5.65;4.10;;;;;;;4.30;100.00;95854.88;6267824;22;20007;-60
2022/02/21 10:07:11;;;;;;;6.68;3.15;;;;;;;4.26;97.78;95863.81;6267614;22;20003;-61
2022/02/21 10:09:42;;;;;;;6.63;3.10;;;;;;;4.21;97.83;95864.09;6267212;22;20026;-61
2022/02/21 10:12:20;;;;;;;13.32;4.13;;;;;;;4.19;99.60;95870.34;6267597;22;20339;-61
2022/02/21 10:14:46;;;;;;;14.68;8.15;;;;;;;4.14;100.00;95894.09;6267404;22;20714;-61
2022/02/21 10:17:11;;;;;;;9.25;5.70;;;;;;;4.32;100.00;95896.47;6266274;22;19999;-61
2022/02/21 10:19:38;;;;;;;7.00;2.13;;;;;;;4.23;87.39;95870.06;6267375;22;20376;-60
2022/02/21 10:22:06;;;;;;;6.15;2.13;;;;;;;3.49;87.51;95895.50;6267257;22;20007;-61
2022/02/21 10:24:41;;;;;;;5.07;2.13;;;;;;;2.96;89.83;95880.38;6267347;22;20099;-60
2022/02/21 10:27:09;;;;;;;6.05;2.22;;;;;;;3.15;88.29;95878.38;6267135;22;20012;-60
2022/02/21 10:29:37;;;;;;;4.38;2.22;;;;;;;2.70;91.98;95895.75;6267430;22;20384;-60
2022/02/21 10:32:09;;;;;;;6.93;3.33;;;;;;;2.45;95.93;95906.72;6266590;22;20008;-60
2022/02/21 10:34:36;;;;;;;4.90;2.58;;;;;;;2.34;96.49;95900.34;6266572;22;20000;-61
2022/02/21 10:37:04;;;;;;;12.80;8.15;;;;;;;2.41;98.50;95906.88;6267467;22;20060;-60
2022/02/21 10:39:29;;;;;;;8.90;4.28;;;;;;;2.37;99.64;95927.94;6269275;22;19999;-60
2022/02/21 10:41:57;;;;;;;6.20;3.97;;;;;;;2.35;100.00;95920.22;6242858;22;20419;-61
2022/02/21 10:44:22;;;;;;;6.15;3.40;;;;;;;2.55;97.71;95932.13;6270230;22;20004;-60
2022/02/21 10:47:14;;;;;;;7.05;3.05;;;;;;;2.17;99.04;95937.69;6270045;22;20011;-60
2022/02/21 10:49:49;;;;;;;7.28;2.95;;;;;;;2.27;97.57;95949.22;6242952;22;20362;-61
2022/02/21 10:52:17;;;;;;;8.82;4.22;;;;;;;2.01;100.00;95948.06;6270073;22;20004;-61
2022/02/21 10:54:44;;;;;;;13.32;4.80;;;;;;;1.99;100.00;95945.53;6270196;22;20071;-62
2022/02/21 10:57:11;;;;;;;5.50;3.35;;;;;;;2.34;100.00;95941.94;6269601;22;20008;-62
2022/02/21 10:59:37;;;;;;;8.13;3.50;;;;;;;2.32;99.93;95948.13;6268583;22;20004;-62
2022/02/21 11:02:03;;;;;;;8.10;4.55;;;;;;;2.50;100.00;95954.91;6269984;22;20011;-61
2022/02/21 11:04:30;;;;;;;6.70;3.65;;;;;;;2.75;100.00;95945.72;6269924;22;20034;-61
2022/02/21 11:06:57;;;;;;;6.18;3.22;;;;;;;2.79;98.44;95943.78;6270050;22;20007;-62
2022/02/21 11:09:26;;;;;;;5.20;3.33;;;;;;;2.91;100.00;95942.25;6268544;22;20324;-60
2022/02/21 11:11:52;;;;;;;7.57;3.15;;;;;;;2.99;100.00;95932.25;6269760;22;20352;-60
2022/02/21 11:14:20;;;;;;;6.15;2.60;;;;;;;3.01;100.00;95933.81;6270623;22;20214;-52
2022/02/21 11:16:49;;;;;;;12.80;5.35;;;;;;;2.97;100.00;95932.34;6265701;22;20015;-50
2022/02/21 11:19:16;;;;;;;5.53;3.92;;;;;;;3.01;100.00;95933.81;6267071;22;20027;-49
2022/02/21 11:21:42;;;;;;;7.88;3.33;;;;;;;3.06;100.00;95935.31;6268234;22;20000;-53
2022/02/21 11:24:09;;;;;;;8.88;3.63;;;;;;;3.13;98.14;95921.84;6267760;22;20002;-49
2022/02/21 11:26:38;;;;;;;6.80;2.78;;;;;;;3.20;97.13;95914.53;6267651;22;20016;-54
2022/02/21 11:29:24;;;;;;;6.43;3.47;;;;;;;3.24;97.34;95918.63;6268609;22;19999;-51
2022/02/21 11:31:49;;;;;;;9.27;4.88;;;;;;;3.29;96.94;95910.56;6268713;22;20078;-50